sensor_id;sensor_type;location;lat;lon;timestamp;pressure;altitude;pressure_sealevel;temperature;humidity
20793;BME280;10556;-33.662;151.094;2024-02-21T00:01:15;99336.50;;;24.29;100.00
20793;BME280;10556;-33.662;151.094;2024-02-21T00:06:17;99327.25;;;24.90;100.00
20793;BME280;10556;-33.662;151.094;2024-02-21T00:11:20;99322.25;;;25.19;100.00
20793;BME280;10556;-33.662;151.094;2024-02-21T00:16:24;99319.34;;;25.14;100.00
20793;BME280;10556;-33.662;151.094;2024-02-21T00:21:27;99320.09;;;25.23;100.00
20793;BME280;10556;-33.662;151.094;2024-02-21T00:26:30;99320.78;;;25.48;100.00
20793;BME280;10556;-33.662;151.094;2024-02-21T00:31:34;99309.53;;;26.82;100.00
20793;BME280;10556;-33.662;151.094;2024-02-21T00:36:37;99310.47;;;28.59;100.00
20793;BME280;10556;-33.662;151.094;2024-02-21T00:41:39;99310.22;;;28.48;100.00
20793;BME280;10556;-33.662;151.094;2024-02-21T00:46:43;99304.22;;;28.26;100.00
20793;BME280;10556;-33.662;151.094;2024-02-21T00:51:46;99305.22;;;28.59;100.00
20793;BME280;10556;-33.662;151.094;2024-02-21T00:56:48;99294.19;;;29.12;100.00
20793;BME280;10556;-33.662;151.094;2024-02-21T01:01:53;99290.19;;;28.12;100.00
20793;BME280;10556;-33.662;151.094;2024-02-21T01:06:55;99287.94;;;27.46;100.00
20793;BME280;10556;-33.662;151.094;2024-02-21T01:11:57;99288.00;;;26.66;100.00
20793;BME280;10556;-33.662;151.094;2024-02-21T01:17:01;99288.06;;;25.68;100.00
20793;BME280;10556;-33.662;151.094;2024-02-21T01:22:04;99288.09;;;25.06;100.00
20793;BME280;10556;-33.662;151.094;2024-02-21T01:27:06;99284.06;;;24.96;100.00
20793;BME280;10556;-33.662;151.094;2024-02-21T01:32:11;99286.03;;;25.47;100.00
20793;BME280;10556;-33.662;151.094;2024-02-21T01:37:13;99276.53;;;26.23;100.00
20793;BME280;10556;-33.662;151.094;2024-02-21T01:42:16;99282.22;;;26.85;100.00
20793;BME280;10556;-33.662;151.094;2024-02-21T01:47:20;99274.44;;;27.42;100.00
20793;BME280;10556;-33.662;151.094;2024-02-21T01:52:23;99280.34;;;28.14;100.00
20793;BME280;10556;-33.662;151.094;2024-02-21T01:57:25;99271.56;;;28.01;100.00
20793;BME280;10556;-33.662;151.094;2024-02-21T02:02:30;99262.75;;;29.25;100.00
20793;BME280;10556;-33.662;151.094;2024-02-21T02:07:32;99259.09;;;29.19;100.00
20793;BME280;10556;-33.662;151.094;2024-02-21T02:12:35;99265.47;;;30.04;100.00
20793;BME280;10556;-33.662;151.094;2024-02-21T02:17:39;99259.53;;;31.12;91.26
20793;BME280;10556;-33.662;151.094;2024-02-21T02:22:43;99255.16;;;31.31;87.77
20793;BME280;10556;-33.662;151.094;2024-02-21T02:27:47;99244.25;;;30.12;91.01
20793;BME280;10556;-33.662;151.094;2024-02-21T02:32:50;99245.13;;;28.02;100.00
20793;BME280;10556;-33.662;151.094;2024-02-21T02:37:52;99239.22;;;26.58;100.00
20793;BME280;10556;-33.662;151.094;2024-02-21T02:42:57;99243.72;;;26.35;100.00
20793;BME280;10556;-33.662;151.094;2024-02-21T02:48:00;99228.31;;;26.25;100.00
20793;BME280;10556;-33.662;151.094;2024-02-21T02:53:02;99224.63;;;26.49;100.00
20793;BME280;10556;-33.662;151.094;2024-02-21T02:58:07;99216.94;;;26.62;100.00
20793;BME280;10556;-33.662;151.094;2024-02-21T03:03:09;99210.25;;;26.74;100.00
20793;BME280;10556;-33.662;151.094;2024-02-21T03:08:11;99204.25;;;27.31;100.00
20793;BME280;10556;-33.662;151.094;2024-02-21T03:13:16;99194.81;;;27.15;100.00
20793;BME280;10556;-33.662;151.094;2024-02-21T03:18:18;99198.72;;;27.90;100.00
20793;BME280;10556;-33.662;151.094;2024-02-21T03:23:21;99196.78;;;28.74;100.00
20793;BME280;10556;-33.662;151.094;2024-02-21T03:28:25;99197.13;;;30.10;100.00
20793;BME280;10556;-33.662;151.094;2024-02-21T03:33:27;99196.50;;;30.15;100.00
20793;BME280;10556;-33.662;151.094;2024-02-21T03:38:30;99190.34;;;28.76;100.00
20793;BME280;10556;-33.662;151.094;2024-02-21T03:43:37;99191.91;;;28.71;100.00
20793;BME280;10556;-33.662;151.094;2024-02-21T03:48:39;99179.69;;;28.43;100.00
20793;BME280;10556;-33.662;151.094;2024-02-21T03:53:42;99168.25;;;28.16;100.00
20793;BME280;10556;-33.662;151.094;2024-02-21T03:58:46;99157.31;;;30.64;100.00
20793;BME280;10556;-33.662;151.094;2024-02-21T04:03:48;99133.44;;;31.72;88.32
20793;BME280;10556;-33.662;151.094;2024-02-21T04:08:51;99137.06;;;32.32;87.55
20793;BME280;10556;-33.662;151.094;2024-02-21T04:13:56;99125.97;;;31.19;82.78
20793;BME280;10556;-33.662;151.094;2024-02-21T04:18:59;99111.00;;;29.99;90.54
20793;BME280;10556;-33.662;151.094;2024-02-21T04:24:01;99104.00;;;29.01;100.00
20793;BME280;10556;-33.662;151.094;2024-02-21T04:29:06;99102.47;;;28.05;100.00
20793;BME280;10556;-33.662;151.094;2024-02-21T04:34:08;99092.53;;;27.94;100.00
20793;BME280;10556;-33.662;151.094;2024-02-21T04:39:10;99100.19;;;27.61;100.00
20793;BME280;10556;-33.662;151.094;2024-02-21T04:44:15;99091.63;;;27.24;100.00
20793;BME280;10556;-33.662;151.094;2024-02-21T04:49:17;99105.56;;;27.87;100.00
20793;BME280;10556;-33.662;151.094;2024-02-21T04:54:20;99100.22;;;28.02;100.00
20793;BME280;10556;-33.662;151.094;2024-02-21T04:59:24;99094.72;;;27.56;100.00
20793;BME280;10556;-33.662;151.094;2024-02-21T05:04:27;99097.66;;;27.18;100.00
20793;BME280;10556;-33.662;151.094;2024-02-21T05:09:29;99085.25;;;27.06;100.00
20793;BME280;10556;-33.662;151.094;2024-02-21T05:14:34;99080.47;;;27.37;100.00
20793;BME280;10556;-33.662;151.094;2024-02-21T05:19:36;99088.56;;;27.42;100.00
20793;BME280;10556;-33.662;151.094;2024-02-21T05:24:40;99076.00;;;27.59;100.00
20793;BME280;10556;-33.662;151.094;2024-02-21T05:29:44;99068.50;;;27.49;100.00
20793;BME280;10556;-33.662;151.094;2024-02-21T05:34:49;99072.72;;;26.80;100.00
20793;BME280;10556;-33.662;151.094;2024-02-21T05:39:52;99073.22;;;26.69;100.00
20793;BME280;10556;-33.662;151.094;2024-02-21T05:44:56;99074.34;;;26.81;100.00
20793;BME280;10556;-33.662;151.094;2024-02-21T05:49:59;99071.09;;;26.79;100.00
20793;BME280;10556;-33.662;151.094;2024-02-21T05:55:01;99065.84;;;26.94;100.00
20793;BME280;10556;-33.662;151.094;2024-02-21T06:00:07;99080.66;;;27.36;100.00
20793;BME280;10556;-33.662;151.094;2024-02-21T06:05:10;99066.44;;;27.17;100.00
20793;BME280;10556;-33.662;151.094;2024-02-21T06:10:12;99076.41;;;27.07;100.00
20793;BME280;10556;-33.662;151.094;2024-02-21T06:15:17;99081.28;;;27.10;100.00
20793;BME280;10556;-33.662;151.094;2024-02-21T06:20:19;99076.47;;;26.71;100.00
20793;BME280;10556;-33.662;151.094;2024-02-21T06:25:22;99076.09;;;26.38;100.00
20793;BME280;10556;-33.662;151.094;2024-02-21T06:30:26;99076.94;;;26.09;100.00
20793;BME280;10556;-33.662;151.094;2024-02-21T06:35:29;99082.41;;;26.14;100.00
20793;BME280;10556;-33.662;151.094;2024-02-21T06:40:32;99087.03;;;26.12;100.00
20793;BME280;10556;-33.662;151.094;2024-02-21T06:45:36;99084.88;;;25.72;100.00
20793;BME280;10556;-33.662;151.094;2024-02-21T06:50:39;99086.38;;;25.51;100.00
20793;BME280;10556;-33.662;151.094;2024-02-21T06:55:42;99080.47;;;25.20;100.00
20793;BME280;10556;-33.662;151.094;2024-02-21T07:00:46;99081.25;;;25.06;100.00
20793;BME280;10556;-33.662;151.094;2024-02-21T07:05:48;99085.78;;;24.58;100.00
20793;BME280;10556;-33.662;151.094;2024-02-21T07:10:51;99082.66;;;24.32;100.00
20793;BME280;10556;-33.662;151.094;2024-02-21T07:15:55;99080.47;;;24.21;100.00
20793;BME280;10556;-33.662;151.094;2024-02-21T07:20:58;99085.19;;;24.09;100.00
20793;BME280;10556;-33.662;151.094;2024-02-21T07:26:00;99100.31;;;24.14;100.00
20793;BME280;10556;-33.662;151.094;2024-02-21T07:31:04;99101.94;;;24.15;100.00
20793;BME280;10556;-33.662;151.094;2024-02-21T07:36:08;99108.13;;;24.14;100.00
20793;BME280;10556;-33.662;151.094;2024-02-21T07:41:10;99112.38;;;24.07;100.00
20793;BME280;10556;-33.662;151.094;2024-02-21T07:46:15;99118.56;;;24.06;100.00
20793;BME280;10556;-33.662;151.094;2024-02-21T07:51:17;99124.44;;;24.00;100.00
20793;BME280;10556;-33.662;151.094;2024-02-21T07:56:20;99120.25;;;23.90;100.00
20793;BME280;10556;-33.662;151.094;2024-02-21T08:01:24;99112.47;;;23.66;100.00
20793;BME280;10556;-33.662;151.094;2024-02-21T08:06:26;99111.88;;;23.48;100.00
20793;BME280;10556;-33.662;151.094;2024-02-21T08:11:30;99132.81;;;23.30;100.00
20793;BME280;10556;-33.662;151.094;2024-02-21T08:16:34;99133.16;;;23.19;100.00
20793;BME280;10556;-33.662;151.094;2024-02-21T08:21:37;99131.66;;;23.00;100.00
20793;BME280;10556;-33.662;151.094;2024-02-21T08:27:11;99137.66;;;22.85;100.00
20793;BME280;10556;-33.662;151.094;2024-02-21T08:32:15;99140.97;;;22.61;100.00
20793;BME280;10556;-33.662;151.094;2024-02-21T08:37:17;99147.94;;;22.52;100.00
20793;BME280;10556;-33.662;151.094;2024-02-21T08:42:21;99164.59;;;22.34;100.00
20793;BME280;10556;-33.662;151.094;2024-02-21T08:47:25;99158.50;;;22.17;100.00
20793;BME280;10556;-33.662;151.094;2024-02-21T08:52:27;99158.91;;;22.04;100.00
20793;BME280;10556;-33.662;151.094;2024-02-21T08:57:30;99153.84;;;21.95;100.00
20793;BME280;10556;-33.662;151.094;2024-02-21T09:02:34;99160.63;;;21.70;100.00
20793;BME280;10556;-33.662;151.094;2024-02-21T09:07:36;99167.47;;;21.36;100.00
20793;BME280;10556;-33.662;151.094;2024-02-21T09:12:39;99165.78;;;21.26;100.00
20793;BME280;10556;-33.662;151.094;2024-02-21T09:17:43;99178.38;;;21.21;100.00
20793;BME280;10556;-33.662;151.094;2024-02-21T09:22:46;99186.91;;;21.31;100.00
20793;BME280;10556;-33.662;151.094;2024-02-21T09:27:48;99191.41;;;21.29;100.00
20793;BME280;10556;-33.662;151.094;2024-02-21T09:32:52;99196.59;;;21.29;100.00
20793;BME280;10556;-33.662;151.094;2024-02-21T09:37:55;99200.16;;;21.28;100.00
20793;BME280;10556;-33.662;151.094;2024-02-21T09:43:02;99201.50;;;21.15;100.00
20793;BME280;10556;-33.662;151.094;2024-02-21T09:48:29;99206.34;;;21.00;100.00
20793;BME280;10556;-33.662;151.094;2024-02-21T09:53:33;99222.38;;;20.86;100.00
20793;BME280;10556;-33.662;151.094;2024-02-21T09:58:36;99232.09;;;20.74;100.00
20793;BME280;10556;-33.662;151.094;2024-02-21T10:03:40;99225.22;;;20.83;100.00
20793;BME280;10556;-33.662;151.094;2024-02-21T10:08:43;99235.72;;;21.09;100.00
20793;BME280;10556;-33.662;151.094;2024-02-21T10:13:45;99247.41;;;21.22;100.00
20793;BME280;10556;-33.662;151.094;2024-02-21T10:18:55;99254.94;;;21.16;100.00
20793;BME280;10556;-33.662;151.094;2024-02-21T10:23:57;99261.28;;;21.04;100.00
20793;BME280;10556;-33.662;151.094;2024-02-21T10:29:02;99262.41;;;20.92;100.00
20793;BME280;10556;-33.662;151.094;2024-02-21T10:34:06;99259.28;;;20.88;100.00
20793;BME280;10556;-33.662;151.094;2024-02-21T10:39:08;99254.97;;;20.79;100.00
20793;BME280;10556;-33.662;151.094;2024-02-21T10:44:12;99249.13;;;20.77;100.00
20793;BME280;10556;-33.662;151.094;2024-02-21T10:49:21;99255.94;;;20.78;100.00
20793;BME280;10556;-33.662;151.094;2024-02-21T10:54:44;99243.44;;;20.91;100.00
20793;BME280;10556;-33.662;151.094;2024-02-21T10:59:47;99250.38;;;21.00;100.00
20793;BME280;10556;-33.662;151.094;2024-02-21T11:04:55;99248.97;;;21.06;100.00
20793;BME280;10556;-33.662;151.094;2024-02-21T11:09:59;99251.72;;;21.04;100.00
20793;BME280;10556;-33.662;151.094;2024-02-21T11:15:07;99248.31;;;21.04;100.00
20793;BME280;10556;-33.662;151.094;2024-02-21T11:20:15;99258.59;;;20.96;100.00
20793;BME280;10556;-33.662;151.094;2024-02-21T11:25:22;99256.00;;;20.96;100.00
20793;BME280;10556;-33.662;151.094;2024-02-21T11:30:29;99260.81;;;20.91;100.00
20793;BME280;10556;-33.662;151.094;2024-02-21T11:35:37;99258.25;;;20.81;100.00
20793;BME280;10556;-33.662;151.094;2024-02-21T11:40:40;99260.19;;;20.69;100.00
20793;BME280;10556;-33.662;151.094;2024-02-21T11:45:42;99263.28;;;20.82;100.00
20793;BME280;10556;-33.662;151.094;2024-02-21T11:50:56;99262.50;;;20.72;100.00
20793;BME280;10556;-33.662;151.094;2024-02-21T11:55:58;99259.13;;;20.72;100.00
20793;BME280;10556;-33.662;151.094;2024-02-21T12:01:01;99255.84;;;20.70;100.00
20793;BME280;10556;-33.662;151.094;2024-02-21T12:06:07;99259.47;;;20.77;100.00
20793;BME280;10556;-33.662;151.094;2024-02-21T12:11:18;99265.16;;;20.90;100.00
20793;BME280;10556;-33.662;151.094;2024-02-21T12:16:22;99256.78;;;20.96;100.00
20793;BME280;10556;-33.662;151.094;2024-02-21T12:21:31;99242.44;;;21.02;100.00
20793;BME280;10556;-33.662;151.094;2024-02-21T12:26:34;99256.75;;;21.06;100.00
20793;BME280;10556;-33.662;151.094;2024-02-21T12:31:37;99255.94;;;21.05;100.00
20793;BME280;10556;-33.662;151.094;2024-02-21T12:36:44;99254.38;;;20.95;100.00
20793;BME280;10556;-33.662;151.094;2024-02-21T12:41:47;99246.66;;;20.85;100.00
20793;BME280;10556;-33.662;151.094;2024-02-21T12:46:49;99249.50;;;20.82;100.00
20793;BME280;10556;-33.662;151.094;2024-02-21T12:51:54;99252.00;;;20.74;100.00
20793;BME280;10556;-33.662;151.094;2024-02-21T12:56:56;99248.59;;;20.73;100.00
20793;BME280;10556;-33.662;151.094;2024-02-21T13:01:59;99252.31;;;20.71;100.00
20793;BME280;10556;-33.662;151.094;2024-02-21T13:07:03;99265.69;;;20.66;100.00
20793;BME280;10556;-33.662;151.094;2024-02-21T13:12:06;99259.47;;;20.77;100.00
20793;BME280;10556;-33.662;151.094;2024-02-21T13:17:08;99263.19;;;21.02;100.00
20793;BME280;10556;-33.662;151.094;2024-02-21T13:22:13;99262.91;;;21.05;100.00
20793;BME280;10556;-33.662;151.094;2024-02-21T13:27:15;99236.81;;;21.06;100.00
20793;BME280;10556;-33.662;151.094;2024-02-21T13:32:18;99230.13;;;21.13;100.00
20793;BME280;10556;-33.662;151.094;2024-02-21T13:37:22;99216.47;;;21.11;100.00
20793;BME280;10556;-33.662;151.094;2024-02-21T13:42:24;99202.47;;;21.04;100.00
20793;BME280;10556;-33.662;151.094;2024-02-21T13:47:27;99191.50;;;21.10;100.00
20793;BME280;10556;-33.662;151.094;2024-02-21T13:52:31;99187.28;;;21.19;100.00
20793;BME280;10556;-33.662;151.094;2024-02-21T13:57:33;99177.72;;;21.19;100.00
20793;BME280;10556;-33.662;151.094;2024-02-21T14:02:36;99179.94;;;21.14;100.00
20793;BME280;10556;-33.662;151.094;2024-02-21T14:07:40;99178.03;;;21.07;100.00
20793;BME280;10556;-33.662;151.094;2024-02-21T14:12:42;99184.25;;;20.96;100.00
20793;BME280;10556;-33.662;151.094;2024-02-21T14:17:45;99169.75;;;21.03;100.00
20793;BME280;10556;-33.662;151.094;2024-02-21T14:22:49;99160.59;;;21.09;100.00
20793;BME280;10556;-33.662;151.094;2024-02-21T14:27:51;99159.31;;;21.13;100.00
20793;BME280;10556;-33.662;151.094;2024-02-21T14:32:54;99146.28;;;21.05;100.00
20793;BME280;10556;-33.662;151.094;2024-02-21T14:37:58;99141.13;;;21.05;100.00
20793;BME280;10556;-33.662;151.094;2024-02-21T14:43:00;99128.53;;;21.10;100.00
20793;BME280;10556;-33.662;151.094;2024-02-21T14:48:03;99114.34;;;21.14;100.00
20793;BME280;10556;-33.662;151.094;2024-02-21T14:53:07;99104.78;;;21.14;100.00
20793;BME280;10556;-33.662;151.094;2024-02-21T14:58:10;99098.22;;;21.10;100.00
20793;BME280;10556;-33.662;151.094;2024-02-21T15:03:12;99089.44;;;21.03;100.00
20793;BME280;10556;-33.662;151.094;2024-02-21T15:08:17;99090.84;;;20.98;100.00
20793;BME280;10556;-33.662;151.094;2024-02-21T15:13:19;99110.91;;;20.96;100.00
20793;BME280;10556;-33.662;151.094;2024-02-21T15:18:23;99104.81;;;20.87;100.00
20793;BME280;10556;-33.662;151.094;2024-02-21T15:23:27;99093.56;;;20.78;100.00
20793;BME280;10556;-33.662;151.094;2024-02-21T15:28:29;99102.47;;;20.76;100.00
20793;BME280;10556;-33.662;151.094;2024-02-21T15:33:32;99096.38;;;20.67;100.00
20793;BME280;10556;-33.662;151.094;2024-02-21T15:38:36;99103.09;;;20.60;100.00
20793;BME280;10556;-33.662;151.094;2024-02-21T15:43:38;99091.56;;;20.55;100.00
20793;BME280;10556;-33.662;151.094;2024-02-21T15:48:41;99090.59;;;20.56;100.00
20793;BME280;10556;-33.662;151.094;2024-02-21T15:53:46;99090.91;;;20.53;100.00
20793;BME280;10556;-33.662;151.094;2024-02-21T15:58:48;99085.47;;;20.46;100.00
20793;BME280;10556;-33.662;151.094;2024-02-21T16:03:51;99074.75;;;20.41;100.00
20793;BME280;10556;-33.662;151.094;2024-02-21T16:09:19;99066.97;;;20.41;100.00
20793;BME280;10556;-33.662;151.094;2024-02-21T16:14:24;99057.72;;;20.38;100.00
20793;BME280;10556;-33.662;151.094;2024-02-21T16:19:27;99057.38;;;20.51;100.00
20793;BME280;10556;-33.662;151.094;2024-02-21T16:24:31;99063.81;;;20.47;100.00
20793;BME280;10556;-33.662;151.094;2024-02-21T16:29:33;99056.38;;;20.34;100.00
20793;BME280;10556;-33.662;151.094;2024-02-21T16:34:36;99048.78;;;20.33;100.00
20793;BME280;10556;-33.662;151.094;2024-02-21T16:39:40;99049.47;;;20.25;100.00
20793;BME280;10556;-33.662;151.094;2024-02-21T16:44:43;99030.81;;;20.31;100.00
20793;BME280;10556;-33.662;151.094;2024-02-21T16:49:45;99036.34;;;20.36;100.00
20793;BME280;10556;-33.662;151.094;2024-02-21T16:54:50;99034.59;;;20.37;100.00
20793;BME280;10556;-33.662;151.094;2024-02-21T16:59:54;99028.72;;;20.35;100.00
20793;BME280;10556;-33.662;151.094;2024-02-21T17:04:56;99019.00;;;20.47;100.00
20793;BME280;10556;-33.662;151.094;2024-02-21T17:10:00;99007.44;;;20.59;100.00
20793;BME280;10556;-33.662;151.094;2024-02-21T17:15:03;99004.66;;;20.52;100.00
20793;BME280;10556;-33.662;151.094;2024-02-21T17:20:07;99002.63;;;20.46;100.00
20793;BME280;10556;-33.662;151.094;2024-02-21T17:25:12;99013.31;;;20.43;100.00
20793;BME280;10556;-33.662;151.094;2024-02-21T17:30:14;99010.78;;;20.33;100.00
20793;BME280;10556;-33.662;151.094;2024-02-21T17:35:17;99008.06;;;20.25;100.00
20793;BME280;10556;-33.662;151.094;2024-02-21T17:40:22;99005.97;;;20.11;100.00
20793;BME280;10556;-33.662;151.094;2024-02-21T17:45:25;99009.38;;;20.12;100.00
20793;BME280;10556;-33.662;151.094;2024-02-21T17:50:27;99016.19;;;20.13;100.00
20793;BME280;10556;-33.662;151.094;2024-02-21T17:55:32;99004.38;;;20.00;100.00
20793;BME280;10556;-33.662;151.094;2024-02-21T18:00:34;99006.38;;;19.89;100.00
20793;BME280;10556;-33.662;151.094;2024-02-21T18:05:37;99012.19;;;19.91;100.00
20793;BME280;10556;-33.662;151.094;2024-02-21T18:10:41;99015.28;;;20.04;100.00
20793;BME280;10556;-33.662;151.094;2024-02-21T18:15:43;99008.84;;;20.08;100.00
20793;BME280;10556;-33.662;151.094;2024-02-21T18:20:46;99007.31;;;20.15;100.00
20793;BME280;10556;-33.662;151.094;2024-02-21T18:25:51;99016.56;;;20.18;100.00
20793;BME280;10556;-33.662;151.094;2024-02-21T18:30:54;99021.34;;;20.13;100.00
20793;BME280;10556;-33.662;151.094;2024-02-21T18:35:56;99029.78;;;20.15;100.00
20793;BME280;10556;-33.662;151.094;2024-02-21T18:41:00;99034.03;;;20.06;100.00
20793;BME280;10556;-33.662;151.094;2024-02-21T18:46:03;99030.91;;;19.85;100.00
20793;BME280;10556;-33.662;151.094;2024-02-21T18:51:05;99033.78;;;19.72;100.00
20793;BME280;10556;-33.662;151.094;2024-02-21T18:56:09;99033.47;;;19.48;100.00
20793;BME280;10556;-33.662;151.094;2024-02-21T19:01:12;99027.38;;;19.30;100.00
20793;BME280;10556;-33.662;151.094;2024-02-21T19:06:14;99031.19;;;19.26;100.00
20793;BME280;10556;-33.662;151.094;2024-02-21T19:11:19;99039.75;;;19.26;100.00
20793;BME280;10556;-33.662;151.094;2024-02-21T19:16:22;99044.22;;;19.24;100.00
20793;BME280;10556;-33.662;151.094;2024-02-21T19:21:24;99058.28;;;19.12;100.00
20793;BME280;10556;-33.662;151.094;2024-02-21T19:26:29;99056.59;;;19.30;100.00
20793;BME280;10556;-33.662;151.094;2024-02-21T19:31:32;99064.88;;;19.43;100.00
20793;BME280;10556;-33.662;151.094;2024-02-21T19:36:35;99077.56;;;19.37;100.00
20793;BME280;10556;-33.662;151.094;2024-02-21T19:41:39;99081.63;;;19.30;100.00
20793;BME280;10556;-33.662;151.094;2024-02-21T19:46:41;99087.06;;;19.36;100.00
20793;BME280;10556;-33.662;151.094;2024-02-21T19:51:44;99101.34;;;19.31;100.00
20793;BME280;10556;-33.662;151.094;2024-02-21T19:56:48;99104.34;;;19.16;100.00
20793;BME280;10556;-33.662;151.094;2024-02-21T20:01:51;99112.66;;;19.10;100.00
20793;BME280;10556;-33.662;151.094;2024-02-21T20:06:53;99116.88;;;19.11;100.00
20793;BME280;10556;-33.662;151.094;2024-02-21T20:11:57;99128.81;;;19.32;100.00
20793;BME280;10556;-33.662;151.094;2024-02-21T20:17:00;99120.91;;;19.62;100.00
20793;BME280;10556;-33.662;151.094;2024-02-21T20:22:02;99140.06;;;19.79;100.00
20793;BME280;10556;-33.662;151.094;2024-02-21T20:27:08;99137.97;;;19.92;100.00
20793;BME280;10556;-33.662;151.094;2024-02-21T20:32:10;99141.19;;;20.13;100.00
20793;BME280;10556;-33.662;151.094;2024-02-21T20:37:12;99148.09;;;20.32;100.00
20793;BME280;10556;-33.662;151.094;2024-02-21T20:42:17;99145.72;;;20.38;100.00
20793;BME280;10556;-33.662;151.094;2024-02-21T20:47:19;99157.22;;;20.54;100.00
20793;BME280;10556;-33.662;151.094;2024-02-21T20:52:21;99150.41;;;20.62;100.00
20793;BME280;10556;-33.662;151.094;2024-02-21T20:57:26;99156.75;;;20.68;100.00
20793;BME280;10556;-33.662;151.094;2024-02-21T21:02:29;99148.84;;;20.87;100.00
20793;BME280;10556;-33.662;151.094;2024-02-21T21:07:31;99149.25;;;21.10;100.00
20793;BME280;10556;-33.662;151.094;2024-02-21T21:12:36;99145.50;;;21.22;100.00
20793;BME280;10556;-33.662;151.094;2024-02-21T21:17:39;99144.22;;;21.44;100.00
20793;BME280;10556;-33.662;151.094;2024-02-21T21:22:41;99158.72;;;21.54;100.00
20793;BME280;10556;-33.662;151.094;2024-02-21T21:27:45;99152.25;;;21.76;100.00
20793;BME280;10556;-33.662;151.094;2024-02-21T21:32:48;99160.06;;;21.84;100.00
20793;BME280;10556;-33.662;151.094;2024-02-21T21:37:50;99170.22;;;21.95;100.00
20793;BME280;10556;-33.662;151.094;2024-02-21T21:42:54;99172.00;;;21.95;100.00
20793;BME280;10556;-33.662;151.094;2024-02-21T21:47:57;99173.34;;;22.07;100.00
20793;BME280;10556;-33.662;151.094;2024-02-21T21:52:59;99180.78;;;22.28;100.00
20793;BME280;10556;-33.662;151.094;2024-02-21T21:58:04;99181.72;;;22.18;100.00
20793;BME280;10556;-33.662;151.094;2024-02-21T22:03:06;99184.84;;;21.96;100.00
20793;BME280;10556;-33.662;151.094;2024-02-21T22:08:08;99183.22;;;22.29;100.00
20793;BME280;10556;-33.662;151.094;2024-02-21T22:13:13;99183.63;;;22.50;100.00
20793;BME280;10556;-33.662;151.094;2024-02-21T22:18:15;99185.72;;;22.47;100.00
20793;BME280;10556;-33.662;151.094;2024-02-21T22:23:17;99175.78;;;22.34;100.00
20793;BME280;10556;-33.662;151.094;2024-02-21T22:28:22;99178.41;;;22.84;100.00
20793;BME280;10556;-33.662;151.094;2024-02-21T22:33:24;99178.00;;;23.21;100.00
20793;BME280;10556;-33.662;151.094;2024-02-21T22:38:27;99170.69;;;23.41;100.00
20793;BME280;10556;-33.662;151.094;2024-02-21T22:43:31;99174.22;;;22.99;100.00
20793;BME280;10556;-33.662;151.094;2024-02-21T22:48:33;99172.16;;;23.27;100.00
20793;BME280;10556;-33.662;151.094;2024-02-21T22:53:36;99161.63;;;23.53;100.00
20793;BME280;10556;-33.662;151.094;2024-02-21T22:58:40;99159.81;;;23.70;100.00
20793;BME280;10556;-33.662;151.094;2024-02-21T23:03:42;99168.19;;;24.04;100.00
20793;BME280;10556;-33.662;151.094;2024-02-21T23:08:45;99156.50;;;24.00;100.00
20793;BME280;10556;-33.662;151.094;2024-02-21T23:13:49;99149.78;;;24.61;100.00
20793;BME280;10556;-33.662;151.094;2024-02-21T23:18:53;99155.38;;;24.89;100.00
20793;BME280;10556;-33.662;151.094;2024-02-21T23:23:55;99154.03;;;24.85;100.00
20793;BME280;10556;-33.662;151.094;2024-02-21T23:29:00;99153.75;;;24.88;100.00
20793;BME280;10556;-33.662;151.094;2024-02-21T23:34:02;99144.22;;;25.92;100.00
20793;BME280;10556;-33.662;151.094;2024-02-21T23:39:04;99146.56;;;26.46;100.00
20793;BME280;10556;-33.662;151.094;2024-02-21T23:44:09;99141.22;;;26.54;100.00
20793;BME280;10556;-33.662;151.094;2024-02-21T23:49:11;99138.78;;;26.53;100.00
20793;BME280;10556;-33.662;151.094;2024-02-21T23:54:13;99127.91;;;27.06;100.00
20793;BME280;10556;-33.662;151.094;2024-02-21T23:59:18;99134.22;;;27.89;100.00
